createdAt,value
2018-07-06T00:01:01.424Z,95.20
2018-07-06T00:03:42.607Z,95.40
2018-07-06T00:06:24.887Z,95.70
2018-07-06T00:09:06.457Z,95.50
2018-07-06T00:11:49.054Z,95.70
2018-07-06T00:14:31.760Z,95.90
2018-07-06T00:17:12.046Z,95.80
2018-07-06T00:19:53.039Z,96.10
2018-07-06T00:22:35.305Z,96.30
2018-07-06T00:25:17.561Z,96.40
2018-07-06T00:27:57.611Z,96.50
2018-07-06T00:30:38.103Z,96.90
2018-07-06T00:33:18.227Z,97.20
2018-07-06T00:35:58.337Z,97.20
2018-07-06T00:38:39.299Z,97.00
2018-07-06T00:41:20.347Z,97.30
2018-07-06T00:44:00.768Z,97.50
2018-07-06T00:46:40.949Z,97.70
2018-07-06T00:49:21.841Z,97.80
2018-07-06T00:52:09.346Z,98.00
2018-07-06T00:54:50.445Z,98.30
2018-07-06T00:57:32.889Z,98.60
2018-07-06T01:00:13.519Z,98.70
2018-07-06T01:02:53.693Z,98.90
2018-07-06T01:05:33.772Z,99.00
2018-07-06T01:08:15.337Z,99.00
2018-07-06T01:10:56.248Z,99.30
2018-07-06T01:13:36.901Z,99.50
2018-07-06T01:16:17.976Z,99.80
2018-07-06T01:18:58.923Z,99.90
2018-07-06T01:21:39.299Z,99.80
2018-07-06T01:24:19.410Z,99.90
2018-07-06T01:27:01.819Z,99.90
2018-07-06T01:29:44.235Z,99.80
2018-07-06T01:32:25.507Z,99.70
2018-07-06T01:35:06.410Z,99.90
2018-07-06T01:37:47.728Z,99.90
2018-07-06T01:40:27.807Z,99.90
2018-07-06T01:43:08.374Z,99.90
2018-07-06T01:45:48.953Z,99.90
2018-07-06T01:48:28.647Z,99.90
2018-07-06T01:51:08.857Z,99.90
2018-07-06T01:53:49.348Z,99.90
2018-07-06T01:56:29.338Z,99.90
2018-07-06T01:59:09.590Z,99.90
2018-07-06T02:01:49.847Z,99.90
2018-07-06T02:04:30.543Z,99.90
2018-07-06T02:07:10.977Z,99.90
2018-07-06T02:09:51.135Z,99.90
2018-07-06T02:12:33.449Z,99.90
2018-07-06T02:15:13.505Z,99.90
2018-07-06T02:17:53.667Z,99.90
2018-07-06T02:20:34.077Z,99.90
2018-07-06T02:23:15.799Z,99.90
2018-07-06T02:25:56.132Z,99.90
2018-07-06T02:28:37.920Z,99.90
2018-07-06T02:31:18.907Z,99.90
2018-07-06T02:34:00.581Z,99.90
2018-07-06T02:36:42.157Z,99.90
2018-07-06T02:39:22.261Z,99.90
2018-07-06T02:42:04.749Z,99.90
2018-07-06T02:44:45.012Z,99.90
2018-07-06T02:47:24.916Z,99.90
2018-07-06T02:50:08.192Z,99.90
2018-07-06T02:52:48.462Z,99.90
2018-07-06T02:55:31.353Z,99.90
2018-07-06T02:58:12.514Z,99.90
2018-07-06T03:00:53.460Z,99.90
2018-07-06T03:03:33.405Z,99.90
2018-07-06T03:06:13.758Z,99.90
2018-07-06T03:08:54.361Z,99.90
2018-07-06T03:11:34.563Z,99.90
2018-07-06T03:14:14.711Z,99.90
2018-07-06T03:16:55.201Z,99.90
2018-07-06T03:19:35.273Z,99.90
2018-07-06T03:22:15.780Z,99.90
2018-07-06T03:24:55.549Z,99.90
2018-07-06T03:27:36.627Z,99.90
2018-07-06T03:30:17.322Z,99.90
2018-07-06T03:32:57.277Z,99.90
2018-07-06T03:35:37.416Z,99.90
2018-07-06T03:38:17.414Z,99.90
2018-07-06T03:40:58.162Z,99.90
2018-07-06T03:43:38.515Z,99.90
2018-07-06T03:46:18.741Z,99.90
2018-07-06T03:48:58.775Z,99.90
2018-07-06T03:51:39.295Z,99.90
2018-07-06T03:54:19.422Z,99.90
2018-07-06T03:56:59.314Z,99.90
2018-07-06T03:59:40.717Z,99.90
2018-07-06T04:02:22.052Z,99.90
2018-07-06T04:05:04.013Z,99.90
2018-07-06T04:07:43.998Z,99.90
2018-07-06T04:10:24.424Z,99.90
2018-07-06T04:13:03.857Z,99.90
2018-07-06T04:15:44.209Z,99.90
2018-07-06T04:18:25.700Z,99.90
2018-07-06T04:21:07.135Z,99.90
2018-07-06T04:23:47.671Z,99.90
2018-07-06T04:26:27.289Z,99.90
2018-07-06T04:29:07.431Z,99.90
2018-07-06T04:31:48.320Z,99.90
2018-07-06T04:34:28.417Z,99.90
2018-07-06T04:37:11.032Z,99.90
2018-07-06T04:39:53.622Z,99.90
2018-07-06T04:42:35.074Z,99.90
2018-07-06T04:45:16.772Z,99.90
2018-07-06T04:47:58.867Z,99.90
2018-07-06T04:50:41.071Z,99.90
2018-07-06T04:53:21.172Z,99.90
2018-07-06T04:56:01.141Z,99.90
2018-07-06T04:58:40.939Z,99.90
2018-07-06T05:01:22.986Z,99.90
2018-07-06T05:04:07.835Z,99.90
2018-07-06T05:06:59.846Z,99.90
2018-07-06T05:09:40.837Z,99.90
2018-07-06T05:12:31.130Z,99.90
2018-07-06T05:15:14.698Z,99.90
2018-07-06T05:18:04.978Z,99.90
2018-07-06T05:20:52.455Z,99.90
2018-07-06T05:26:44.237Z,99.90
2018-07-06T05:29:32.095Z,99.90
2018-07-06T05:32:14.208Z,99.90
2018-07-06T05:34:56.843Z,99.90
2018-07-06T05:37:38.531Z,99.90
2018-07-06T05:40:22.952Z,99.90
2018-07-06T05:43:11.800Z,99.90
2018-07-06T05:45:53.628Z,99.90
2018-07-06T05:48:33.320Z,99.90
2018-07-06T05:54:09.978Z,99.90
2018-07-06T05:56:53.038Z,99.90
2018-07-06T05:59:37.021Z,99.90
2018-07-06T06:02:21.249Z,99.90
2018-07-06T06:05:05.159Z,99.90
2018-07-06T06:07:38.059Z,99.90
2018-07-06T06:10:09.285Z,99.90
2018-07-06T06:15:08.095Z,99.90
2018-07-06T06:17:37.877Z,99.90
2018-07-06T06:20:12.919Z,99.90
2018-07-06T06:22:42.971Z,99.60
2018-07-06T06:25:14.181Z,99.80
2018-07-06T06:27:48.186Z,99.90
2018-07-06T06:30:17.044Z,99.90
2018-07-06T06:32:45.611Z,99.90
2018-07-06T06:35:15.255Z,99.60
2018-07-06T06:37:44.496Z,99.80
2018-07-06T06:40:16.163Z,99.30
2018-07-06T06:42:45.023Z,99.40
2018-07-06T06:45:17.154Z,99.80
2018-07-06T06:47:46.429Z,99.50
2018-07-06T06:50:16.232Z,99.50
2018-07-06T06:52:49.853Z,99.20
2018-07-06T06:55:18.586Z,99.70
2018-07-06T06:57:52.557Z,99.30
2018-07-06T07:00:27.532Z,99.20
2018-07-06T07:02:50.932Z,99.00
2018-07-06T07:05:21.197Z,99.20
2018-07-06T07:07:54.352Z,98.70
2018-07-06T07:10:22.814Z,98.30
2018-07-06T07:12:53.159Z,98.30
2018-07-06T07:15:23.589Z,98.60
2018-07-06T07:17:54.195Z,98.50
2018-07-06T07:20:22.696Z,98.40
2018-07-06T07:22:51.630Z,97.50
2018-07-06T07:25:23.610Z,97.00
2018-07-06T07:27:53.796Z,96.30
2018-07-06T07:30:23.370Z,96.70
2018-07-06T07:32:52.745Z,96.70
2018-07-06T07:35:22.315Z,96.40
2018-07-06T07:37:52.944Z,96.40
2018-07-06T07:40:23.076Z,95.90
2018-07-06T07:42:51.589Z,96.10
2018-07-06T07:45:20.300Z,95.70
2018-07-06T07:47:50.723Z,95.60
2018-07-06T07:50:19.641Z,95.20
2018-07-06T07:53:02.215Z,94.50
2018-07-06T07:55:32.281Z,94.50
2018-07-06T07:58:03.367Z,93.40
2018-07-06T08:00:32.834Z,93.10
2018-07-06T08:03:01.341Z,93.90
2018-07-06T08:05:29.701Z,94.40
2018-07-06T08:07:59.744Z,94.60
2018-07-06T08:10:29.955Z,94.30
2018-07-06T08:12:58.288Z,93.80
2018-07-06T08:15:26.899Z,93.50
2018-07-06T08:17:55.314Z,93.90
2018-07-06T08:20:23.616Z,93.30
2018-07-06T08:22:54.692Z,92.80
2018-07-06T08:25:28.435Z,92.90
2018-07-06T08:27:57.723Z,93.30
2018-07-06T08:30:26.203Z,93.00
2018-07-06T08:32:54.548Z,92.70
2018-07-06T08:35:34.134Z,92.60
2018-07-06T08:38:11.904Z,93.10
2018-07-06T08:40:40.261Z,92.70
2018-07-06T08:43:08.640Z,92.20
2018-07-06T08:45:37.061Z,91.90
2018-07-06T08:48:05.392Z,92.50
2018-07-06T08:50:33.689Z,92.30
2018-07-06T08:55:31.044Z,92.30
2018-07-06T08:57:59.628Z,92.20
2018-07-06T09:00:27.956Z,92.40
2018-07-06T09:02:56.636Z,92.70
2018-07-06T09:05:27.289Z,92.50
2018-07-06T09:07:56.357Z,92.60
2018-07-06T09:10:26.266Z,92.70
2018-07-06T09:12:56.330Z,92.50
2018-07-06T09:15:25.040Z,92.50
2018-07-06T09:17:53.559Z,92.30
2018-07-06T09:20:21.843Z,92.20
2018-07-06T09:22:50.296Z,91.90
2018-07-06T09:25:18.823Z,92.00
2018-07-06T09:27:49.032Z,91.70
2018-07-06T09:30:17.945Z,91.70
2018-07-06T09:32:46.250Z,91.30
2018-07-06T09:35:14.892Z,91.00
2018-07-06T09:37:43.490Z,91.00
2018-07-06T09:40:11.794Z,90.50
2018-07-06T09:42:40.336Z,90.70
2018-07-06T09:45:08.744Z,90.40
2018-07-06T09:47:37.078Z,90.20
2018-07-06T09:50:08.195Z,89.50
2018-07-06T09:52:36.833Z,90.00
2018-07-06T09:55:05.234Z,89.80
2018-07-06T09:57:33.557Z,86.30
2018-07-06T10:00:02.477Z,86.40
2018-07-06T10:02:32.917Z,85.10
2018-07-06T10:05:03.955Z,86.90
2018-07-06T10:12:36.418Z,87.00
2018-07-06T10:15:20.186Z,87.40
2018-07-06T10:29:45.257Z,86.40
2018-07-06T13:29:29.882Z,66.80
2018-07-06T13:32:13.412Z,66.60
2018-07-06T13:34:50.647Z,67.70
2018-07-06T13:37:27.134Z,66.70
2018-07-06T13:40:03.154Z,64.80
2018-07-06T13:42:35.867Z,63.60
2018-07-06T13:45:11.270Z,65.50
2018-07-06T13:50:08.324Z,64.70
2018-07-06T13:52:37.109Z,63.50
2018-07-06T13:55:06.589Z,62.60
2018-07-06T13:57:38.687Z,63.50
2018-07-06T14:00:14.048Z,63.40
2018-07-06T14:05:54.152Z,63.10
2018-07-06T14:08:27.393Z,63.90
2018-07-06T14:13:44.722Z,65.80
2018-07-06T14:16:24.721Z,63.30
2018-07-06T14:18:53.263Z,61.90
2018-07-06T14:21:36.359Z,59.90
2018-07-06T14:24:08.163Z,59.20
2018-07-06T14:26:45.571Z,58.70
2018-07-06T14:29:25.458Z,60.30
2018-07-06T14:32:12.928Z,62.60
2018-07-06T14:34:54.381Z,64.10
2018-07-06T14:37:23.964Z,66.40
2018-07-06T14:39:53.394Z,66.50
2018-07-06T14:42:23.532Z,66.70
2018-07-06T14:44:53.389Z,67.80
2018-07-06T14:47:22.159Z,68.50
2018-07-06T14:49:51.849Z,68.10
2018-07-06T14:52:20.231Z,67.90
2018-07-06T14:54:48.700Z,68.00
2018-07-06T14:57:17.080Z,68.70
2018-07-06T14:59:45.514Z,69.00
2018-07-06T15:02:14.092Z,68.80
2018-07-06T15:04:42.524Z,68.60
2018-07-06T15:07:10.869Z,68.60
2018-07-06T15:09:39.282Z,68.80
2018-07-06T15:12:07.640Z,69.30
2018-07-06T15:14:36.003Z,69.20
2018-07-06T15:17:04.935Z,69.70
2018-07-06T15:19:33.402Z,69.00
2018-07-06T15:22:02.262Z,69.10
2018-07-06T15:24:31.005Z,68.10
2018-07-06T15:26:59.293Z,68.40
2018-07-06T15:29:27.648Z,66.80
2018-07-06T15:31:55.958Z,66.60
2018-07-06T15:34:25.213Z,66.50
2018-07-06T15:36:54.126Z,65.00
2018-07-06T15:39:24.373Z,64.90
2018-07-06T15:41:55.455Z,61.90
2018-07-06T15:44:28.037Z,61.40
2018-07-06T15:47:00.051Z,59.80
2018-07-06T15:49:34.209Z,57.80
2018-07-06T15:52:04.301Z,57.00
2018-07-06T15:54:34.503Z,55.70
2018-07-06T15:57:03.749Z,55.20
2018-07-06T15:59:35.081Z,56.00
2018-07-06T16:02:06.054Z,55.00
2018-07-06T16:04:34.871Z,55.20
2018-07-06T16:07:03.494Z,54.90
2018-07-06T16:09:32.838Z,54.10
2018-07-06T16:12:02.657Z,52.70
2018-07-06T16:14:32.890Z,51.80
2018-07-06T16:17:01.961Z,51.30
2018-07-06T16:19:32.982Z,50.90
2018-07-06T16:22:05.429Z,49.20
2018-07-06T16:24:34.611Z,50.40
2018-07-06T16:27:04.052Z,50.60
2018-07-06T16:29:36.282Z,51.00
2018-07-06T16:32:11.865Z,52.10
2018-07-06T16:34:42.770Z,54.50
2018-07-06T16:37:13.145Z,56.60
2018-07-06T16:39:42.741Z,58.40
2018-07-06T16:42:13.906Z,58.90
2018-07-06T16:44:42.757Z,59.30
2018-07-06T16:47:12.234Z,59.60
2018-07-06T16:49:42.374Z,60.70
2018-07-06T16:52:12.526Z,59.70
2018-07-06T16:54:45.815Z,60.60
2018-07-06T16:57:14.419Z,61.50
2018-07-06T16:59:43.581Z,62.50
2018-07-06T17:02:13.622Z,63.40
2018-07-06T17:04:43.804Z,62.80
2018-07-06T17:07:13.750Z,63.10
2018-07-06T17:09:43.293Z,62.50
2018-07-06T17:12:18.831Z,61.10
2018-07-06T17:14:52.347Z,61.10
2018-07-06T17:17:23.110Z,60.80
2018-07-06T17:19:53.011Z,60.50
2018-07-06T17:22:22.210Z,60.50
2018-07-06T17:24:50.992Z,61.20
2018-07-06T17:27:33.846Z,60.60
2018-07-06T17:30:05.366Z,60.50
2018-07-06T17:32:41.946Z,60.20
2018-07-06T17:35:42.360Z,60.50
2018-07-06T17:38:11.928Z,60.80
2018-07-06T17:40:42.538Z,61.60
2018-07-06T17:43:21.409Z,60.70
2018-07-06T17:45:59.179Z,60.80
2018-07-06T17:48:32.265Z,61.20
2018-07-06T17:51:04.588Z,61.30
2018-07-06T17:59:39.136Z,61.70
2018-07-06T18:02:07.497Z,62.20
2018-07-06T18:04:35.835Z,62.00
2018-07-06T18:07:04.197Z,61.60
2018-07-06T18:09:32.535Z,62.30
2018-07-06T18:12:00.887Z,62.70
2018-07-06T18:14:29.233Z,62.70
2018-07-06T18:16:57.726Z,61.90
2018-07-06T18:19:26.109Z,62.60
2018-07-06T18:21:54.745Z,62.00
2018-07-06T18:24:23.233Z,61.80
2018-07-06T18:26:51.560Z,61.80
2018-07-06T18:29:19.893Z,62.20
2018-07-06T18:31:48.264Z,59.50
2018-07-06T18:34:16.689Z,58.70
2018-07-06T18:36:45.122Z,59.30
2018-07-06T18:39:13.424Z,59.00
2018-07-06T18:41:41.770Z,58.60
2018-07-06T18:44:10.094Z,58.80
2018-07-06T18:46:38.427Z,59.10
2018-07-06T18:49:06.760Z,60.00
2018-07-06T18:51:35.185Z,61.30
2018-07-06T18:54:03.575Z,62.80
2018-07-06T18:56:31.920Z,64.40
2018-07-06T18:59:00.282Z,63.50
2018-07-06T19:01:28.585Z,64.20
2018-07-06T19:03:56.953Z,64.70
2018-07-06T19:06:25.253Z,64.40
2018-07-06T19:08:53.641Z,65.10
2018-07-06T19:11:21.969Z,65.70
2018-07-06T19:13:50.330Z,66.10
2018-07-06T19:16:18.670Z,67.00
2018-07-06T19:18:46.966Z,67.40
2018-07-06T19:21:15.326Z,68.20
2018-07-06T19:23:43.604Z,68.40
2018-07-06T19:26:12.008Z,68.70
2018-07-06T19:28:40.430Z,68.30
2018-07-06T19:31:08.772Z,68.90
2018-07-06T19:33:37.111Z,69.80
2018-07-06T19:36:05.677Z,69.70
2018-07-06T19:38:34.194Z,70.70
2018-07-06T19:41:02.842Z,70.60
2018-07-06T19:43:31.201Z,71.40
2018-07-06T19:45:59.553Z,71.80
2018-07-06T19:48:27.990Z,72.10
2018-07-06T19:50:58.428Z,72.90
2018-07-06T19:53:26.801Z,72.70
2018-07-06T19:55:55.164Z,73.60
2018-07-06T19:58:23.653Z,74.10
2018-07-06T20:00:52.069Z,74.50
2018-07-06T20:03:20.486Z,75.10
2018-07-06T20:05:48.934Z,75.10
2018-07-06T20:08:17.329Z,75.60
2018-07-06T20:10:45.704Z,75.50
2018-07-06T20:13:14.078Z,76.10
2018-07-06T20:15:42.456Z,76.60
2018-07-06T20:18:10.969Z,77.10
2018-07-06T20:20:39.400Z,77.40
2018-07-06T20:23:07.947Z,77.60
2018-07-06T20:25:36.366Z,77.60
2018-07-06T20:28:04.797Z,77.90
2018-07-06T20:30:33.297Z,77.80
2018-07-06T20:33:01.625Z,77.80
2018-07-06T20:35:29.992Z,78.10
2018-07-06T20:37:58.361Z,79.00
2018-07-06T20:40:26.669Z,78.80
2018-07-06T20:42:54.984Z,79.70
2018-07-06T20:45:23.355Z,79.40
2018-07-06T20:47:51.705Z,79.40
2018-07-06T20:50:20.192Z,79.60
2018-07-06T20:52:48.514Z,80.50
2018-07-06T20:55:16.900Z,80.80
2018-07-06T20:57:45.224Z,81.60
2018-07-06T21:02:41.576Z,82.40
2018-07-06T21:07:38.149Z,83.10
2018-07-06T21:10:06.513Z,84.30
2018-07-06T21:12:34.841Z,84.10
2018-07-06T21:15:03.153Z,85.30
2018-07-06T21:17:31.476Z,85.70
2018-07-06T21:19:59.848Z,86.20
2018-07-06T21:22:28.700Z,87.00
2018-07-06T21:24:57.025Z,87.80
2018-07-06T21:27:25.361Z,88.00
2018-07-06T21:29:53.777Z,88.30
2018-07-06T21:32:22.121Z,88.20
2018-07-06T21:34:50.421Z,88.50
2018-07-06T21:37:18.726Z,88.70
2018-07-06T21:39:47.173Z,89.10
2018-07-06T21:42:15.570Z,89.90
2018-07-06T21:44:43.891Z,89.80
2018-07-06T21:47:12.353Z,90.20
2018-07-06T21:49:40.664Z,90.30
2018-07-06T21:52:09.028Z,90.60
2018-07-06T21:54:37.315Z,90.90
2018-07-06T21:57:05.637Z,91.20
2018-07-06T21:59:34.008Z,91.20
2018-07-06T22:02:02.344Z,91.30
2018-07-06T22:04:30.653Z,91.10
2018-07-06T22:06:59.162Z,91.10
2018-07-06T22:09:27.473Z,91.30
2018-07-06T22:11:56.193Z,91.40
2018-07-06T22:14:24.579Z,91.50
2018-07-06T22:16:52.904Z,92.00
2018-07-06T22:19:21.296Z,92.20
2018-07-06T22:21:49.601Z,92.20
2018-07-06T22:24:17.953Z,92.70
2018-07-06T22:26:46.276Z,93.00
2018-07-06T22:29:14.695Z,92.90
2018-07-06T22:31:43.082Z,93.30
2018-07-06T22:34:11.445Z,93.50
2018-07-06T22:36:39.832Z,93.60
2018-07-06T22:39:08.793Z,93.60
2018-07-06T22:41:37.143Z,93.40
2018-07-06T22:44:05.447Z,93.60
2018-07-06T22:49:01.765Z,93.70
2018-07-06T22:51:30.130Z,94.20
2018-07-06T22:53:58.489Z,94.30
2018-07-06T22:56:26.788Z,94.50
2018-07-06T22:58:55.215Z,94.60
2018-07-06T23:01:23.593Z,94.60
2018-07-06T23:03:51.887Z,94.60
2018-07-06T23:06:20.361Z,94.80
2018-07-06T23:08:48.679Z,94.90
2018-07-06T23:11:16.964Z,95.00
2018-07-06T23:13:45.230Z,95.00
2018-07-06T23:16:13.593Z,95.30
2018-07-06T23:18:43.426Z,95.40
2018-07-06T23:21:11.708Z,95.60
2018-07-06T23:23:40.026Z,95.80
2018-07-06T23:26:08.430Z,95.90
2018-07-06T23:28:36.778Z,96.00
2018-07-06T23:31:05.117Z,96.00
2018-07-06T23:33:34.361Z,96.20
2018-07-06T23:36:02.760Z,96.40
2018-07-06T23:38:32.752Z,96.60
2018-07-06T23:43:29.145Z,96.80
2018-07-06T23:45:57.456Z,96.90
2018-07-06T23:48:25.759Z,96.80
2018-07-06T23:50:54.114Z,96.90
2018-07-06T23:53:22.477Z,97.00
2018-07-06T23:55:50.765Z,97.10
2018-07-06T23:58:19.104Z,97.20
